Time;durP1;ratioP1;P1;durP2;ratioP2;P2;SDS_P1;SDS_P2;PMS_P1;PMS_P2;Temp;Humidity;BMP_temperature;BMP_pressure;BME280_temperature;BME280_humidity;BME280_pressure;Samples;Min_cycle;Max_cycle;Signal;HPM_P1;HPM_P2
2021/04/16 00:00:36;;;;;;;14.07;4.55;;;;;;;3.52;52.71;99821.28;3583766;40;20045;-68
2021/04/16 00:03:04;;;;;;;5.55;4.13;;;;;;;3.46;52.80;99819.97;3585208;40;20032;-68
2021/04/16 00:05:31;;;;;;;5.72;3.88;;;;;;;3.45;52.76;99818.31;3583915;40;20057;-69
2021/04/16 00:07:59;;;;;;;7.78;4.00;;;;;;;3.44;52.87;99817.50;3586166;40;20053;-68
2021/04/16 00:10:33;;;;;;;4.60;3.53;;;;;;;3.48;53.10;99815.47;3585179;40;20056;-68
2021/04/16 00:13:01;;;;;;;5.53;3.55;;;;;;;3.43;53.18;99815.84;3585280;40;20057;-68
2021/04/16 00:15:31;;;;;;;8.45;3.80;;;;;;;3.40;53.07;99805.63;3586167;40;20048;-69
2021/04/16 00:17:59;;;;;;;6.63;4.03;;;;;;;3.36;53.16;99812.03;3584337;40;20053;-68
2021/04/16 00:20:28;;;;;;;6.15;3.88;;;;;;;3.23;53.63;99808.75;3584449;40;20493;-68
2021/04/16 00:22:56;;;;;;;7.38;4.63;;;;;;;3.08;53.94;99813.38;3584960;40;20049;-68
2021/04/16 00:25:25;;;;;;;5.72;4.47;;;;;;;2.93;54.54;99812.78;3583104;40;20056;-67
2021/04/16 00:27:53;;;;;;;8.00;5.22;;;;;;;2.98;54.61;99813.28;3584427;40;20060;-68
2021/04/16 00:30:23;;;;;;;7.55;4.72;;;;;;;3.07;54.77;99803.91;3584249;40;20051;-68
2021/04/16 00:32:50;;;;;;;6.47;4.18;;;;;;;3.14;54.81;99802.47;3583025;40;20056;-68
2021/04/16 00:35:18;;;;;;;4.50;3.72;;;;;;;3.02;54.41;99800.81;3584659;40;20071;-69
2021/04/16 00:37:45;;;;;;;8.80;3.67;;;;;;;2.92;54.96;99799.84;3583106;40;20044;-67
2021/04/16 00:40:16;;;;;;;4.80;3.53;;;;;;;2.98;54.90;99797.63;3584039;40;20105;-68
2021/04/16 00:42:51;;;;;;;5.32;3.90;;;;;;;2.97;54.99;99801.16;3583859;40;20130;-68
2021/04/16 00:45:18;;;;;;;5.88;4.45;;;;;;;3.03;54.94;99793.81;3583678;40;20055;-69
2021/04/16 00:47:45;;;;;;;5.18;3.90;;;;;;;3.02;54.94;99787.75;3582485;40;20077;-68
2021/04/16 00:50:18;;;;;;;8.13;4.07;;;;;;;2.97;54.86;99790.72;3581335;40;20076;-68
2021/04/16 00:52:46;;;;;;;6.55;4.00;;;;;;;2.86;55.32;99790.72;3581730;40;20069;-69
2021/04/16 00:55:14;;;;;;;9.88;4.05;;;;;;;2.89;55.55;99790.47;3581828;40;20041;-68
2021/04/16 00:57:41;;;;;;;5.25;3.70;;;;;;;2.93;55.44;99789.28;3581904;40;20056;-68
2021/04/16 01:00:10;;;;;;;6.15;4.20;;;;;;;2.87;55.59;99789.78;3581777;40;20037;-68
2021/04/16 01:02:37;;;;;;;4.90;3.88;;;;;;;2.96;55.72;99781.22;3580709;40;20412;-68
2021/04/16 01:05:06;;;;;;;6.03;4.13;;;;;;;3.02;55.29;99782.53;3581883;40;20051;-70
2021/04/16 01:07:33;;;;;;;5.40;3.70;;;;;;;3.02;55.39;99790.38;3582076;40;20422;-69
2021/04/16 01:10:01;;;;;;;6.85;4.32;;;;;;;3.02;55.25;99781.69;3581738;40;20048;-68
2021/04/16 01:12:28;;;;;;;6.72;4.07;;;;;;;2.93;55.39;99789.28;3582196;40;20089;-68
2021/04/16 01:15:02;;;;;;;5.28;3.70;;;;;;;2.94;55.34;99784.91;3582435;40;20051;-69
2021/04/16 01:17:29;;;;;;;;;;;;;;;2.90;55.56;99780.88;3583299;40;20384;-68
2021/04/16 01:20:04;;;;;;;5.40;4.28;;;;;;;2.87;55.78;99776.72;3582567;40;19935;-68
2021/04/16 01:22:35;;;;;;;8.75;3.83;;;;;;;2.88;55.64;99778.38;3581455;40;20043;-68
2021/04/16 01:25:08;;;;;;;4.32;3.92;;;;;;;2.86;55.73;99782.91;3582265;40;20061;-68
2021/04/16 01:27:35;;;;;;;7.03;4.30;;;;;;;2.76;55.88;99775.88;3582931;40;20064;-68
2021/04/16 01:30:07;;;;;;;4.22;3.55;;;;;;;2.84;55.99;99779.56;3582427;40;20077;-68
2021/04/16 01:32:35;;;;;;;6.40;4.05;;;;;;;2.93;56.03;99773.63;3581776;40;20049;-68
2021/04/16 01:35:04;;;;;;;6.05;4.03;;;;;;;2.94;55.72;99770.06;3581458;40;20334;-68
2021/04/16 01:37:31;;;;;;;5.72;3.80;;;;;;;2.94;55.69;99769.25;3581260;40;20049;-68
2021/04/16 01:39:57;;;;;;;4.93;3.72;;;;;;;2.97;55.85;99772.41;3582507;40;20045;-68
2021/04/16 01:42:25;;;;;;;7.13;4.60;;;;;;;2.82;55.91;99771.03;3582902;40;20049;-69
2021/04/16 01:44:52;;;;;;;4.40;3.38;;;;;;;2.77;56.09;99770.53;3581543;40;20071;-69
2021/04/16 01:47:19;;;;;;;7.03;3.90;;;;;;;2.68;56.20;99771.25;3582471;40;20052;-68
2021/04/16 01:49:48;;;;;;;7.40;4.32;;;;;;;2.71;56.40;99769.25;3582863;40;20130;-69
2021/04/16 01:52:19;;;;;;;4.65;3.53;;;;;;;2.71;56.46;99764.03;3582414;40;20051;-68
2021/04/16 01:54:50;;;;;;;6.95;3.88;;;;;;;2.76;56.29;99768.88;3582189;40;20159;-69
2021/04/16 01:57:20;;;;;;;6.05;3.75;;;;;;;2.72;56.47;99765.66;3582687;40;20049;-68
2021/04/16 01:59:49;;;;;;;3.83;3.20;;;;;;;2.75;56.23;99766.41;3582269;40;20044;-69
2021/04/16 02:02:20;;;;;;;5.45;3.55;;;;;;;2.65;56.55;99769.72;3582319;40;20045;-69
2021/04/16 02:04:47;;;;;;;4.88;2.95;;;;;;;2.53;56.67;99760.22;3582583;40;20054;-68
2021/04/16 02:07:13;;;;;;;7.82;3.67;;;;;;;2.56;56.76;99764.38;3582637;40;20052;-68
2021/04/16 02:09:41;;;;;;;5.65;4.13;;;;;;;2.63;56.60;99765.56;3582787;40;20343;-70
2021/04/16 02:12:10;;;;;;;5.93;3.50;;;;;;;2.66;56.61;99760.94;3582182;40;20049;-69
2021/04/16 02:14:37;;;;;;;6.82;4.10;;;;;;;2.73;56.44;99754.31;3581304;40;20106;-69
2021/04/16 02:17:09;;;;;;;5.45;3.60;;;;;;;2.66;56.58;99753.09;3582944;40;20143;-68
2021/04/16 02:19:37;;;;;;;6.45;4.53;;;;;;;2.71;56.81;99753.56;3581555;40;20032;-68
2021/04/16 02:22:06;;;;;;;5.35;3.90;;;;;;;2.55;56.74;99760.09;3582905;40;20324;-69
2021/04/16 02:24:33;;;;;;;5.65;3.83;;;;;;;2.40;56.91;99752.47;3582560;40;20427;-71
2021/04/16 02:27:00;;;;;;;4.63;3.83;;;;;;;2.30;57.57;99740.28;3581592;40;20056;-69
2021/04/16 02:29:27;;;;;;;6.43;4.00;;;;;;;2.31;57.47;99750.59;3580540;40;20056;-68
2021/04/16 02:31:54;;;;;;;6.53;3.85;;;;;;;2.30;57.78;99750.72;3580616;40;20467;-69
2021/04/16 02:34:25;;;;;;;6.25;3.63;;;;;;;2.31;58.07;99744.53;3581749;40;20348;-68
2021/04/16 02:36:54;;;;;;;5.93;3.70;;;;;;;2.40;57.55;99747.25;3582639;40;20051;-69
2021/04/16 02:39:22;;;;;;;4.28;3.35;;;;;;;2.37;57.48;99744.91;3581759;40;20056;-69
2021/04/16 02:41:50;;;;;;;6.25;4.00;;;;;;;2.32;57.29;99744.41;3581240;40;20064;-69
2021/04/16 02:44:17;;;;;;;9.73;3.92;;;;;;;2.30;58.08;99745.50;3581590;40;20056;-69
2021/04/16 02:46:44;;;;;;;6.25;3.75;;;;;;;2.23;58.19;99740.72;3581957;40;20052;-68
2021/04/16 02:49:12;;;;;;;5.28;3.80;;;;;;;2.19;58.27;99744.50;3582073;40;20044;-68
2021/04/16 02:51:40;;;;;;;4.78;3.47;;;;;;;2.29;58.52;99752.50;3581943;40;20052;-68
2021/04/16 02:54:07;;;;;;;6.03;3.78;;;;;;;2.35;57.92;99745.97;3581723;40;20415;-68
2021/04/16 02:56:34;;;;;;;6.82;4.25;;;;;;;2.30;58.25;99746.31;3581325;40;20053;-68
2021/04/16 02:59:02;;;;;;;4.95;3.65;;;;;;;2.16;58.42;99743.91;3581842;40;20048;-68
2021/04/16 03:01:29;;;;;;;4.10;3.30;;;;;;;2.21;58.41;99747.03;3580885;40;20064;-68
2021/04/16 03:03:56;;;;;;;5.28;3.08;;;;;;;2.25;58.54;99752.84;3581555;40;20055;-69
2021/04/16 03:06:24;;;;;;;3.90;3.53;;;;;;;2.25;58.35;99747.63;3582165;40;20056;-69
2021/04/16 03:08:56;;;;;;;5.50;3.80;;;;;;;2.30;58.75;99738.50;3582140;40;20052;-69
2021/04/16 03:11:23;;;;;;;10.43;4.20;;;;;;;2.41;58.30;99743.72;3581159;40;20057;-67
2021/04/16 03:13:50;;;;;;;6.78;3.55;;;;;;;2.38;58.15;99737.91;3582538;40;20114;-68
2021/04/16 03:16:18;;;;;;;6.53;3.38;;;;;;;2.41;58.25;99740.28;3582738;40;20126;-68
2021/04/16 03:18:46;;;;;;;5.93;3.63;;;;;;;2.47;58.30;99735.41;3583656;40;20312;-68
2021/04/16 03:21:12;;;;;;;7.22;4.03;;;;;;;2.50;58.23;99738.75;3614871;22;20299;-67
2021/04/16 03:23:39;;;;;;;5.82;3.78;;;;;;;2.47;58.35;99734.59;3579187;40;20428;-66
2021/04/16 03:26:07;;;;;;;4.55;3.30;;;;;;;2.48;58.13;99729.25;3580094;40;20049;-67
2021/04/16 03:28:34;;;;;;;5.88;3.63;;;;;;;2.59;58.16;99719.75;3580105;40;20053;-66
2021/04/16 03:31:00;;;;;;;5.57;4.00;;;;;;;2.60;57.80;99719.63;3580042;40;20057;-67
2021/04/16 03:33:27;;;;;;;5.78;3.55;;;;;;;2.57;57.81;99717.28;3580047;40;20114;-69
2021/04/16 03:35:55;;;;;;;5.20;3.80;;;;;;;2.48;57.56;99734.47;3579697;40;20048;-66
2021/04/16 03:38:22;;;;;;;6.72;3.50;;;;;;;2.41;57.98;99728.06;3580160;40;20052;-68
2021/04/16 03:40:50;;;;;;;6.00;4.05;;;;;;;2.46;58.35;99723.31;3579879;40;20041;-67
2021/04/16 03:43:18;;;;;;;6.70;3.72;;;;;;;2.59;58.59;99723.19;3578799;40;20091;-67
2021/04/16 03:45:44;;;;;;;5.40;3.40;;;;;;;2.67;58.50;99722.59;3579712;40;20048;-67
2021/04/16 03:48:11;;;;;;;5.03;3.75;;;;;;;2.65;58.15;99721.88;3579930;40;20045;-67
2021/04/16 03:50:39;;;;;;;5.88;4.22;;;;;;;2.61;58.33;99720.47;3579672;40;20045;-68
2021/04/16 03:53:07;;;;;;;5.72;4.15;;;;;;;2.60;58.29;99718.81;3579995;40;20045;-67
2021/04/16 03:55:36;;;;;;;5.88;4.05;;;;;;;2.59;58.32;99723.19;3579703;40;20392;-67
2021/04/16 03:58:05;;;;;;;7.60;4.43;;;;;;;2.63;57.75;99719.41;3580170;40;20361;-66
2021/04/16 04:00:36;;;;;;;5.90;4.50;;;;;;;2.63;58.33;99724.63;3570703;40;20045;-67
2021/04/16 04:03:04;;;;;;;5.47;3.97;;;;;;;2.66;58.46;99734.00;3579233;40;20055;-67
2021/04/16 04:05:31;;;;;;;5.72;4.45;;;;;;;2.66;58.40;99726.19;3579157;40;20130;-67
2021/04/16 04:08:00;;;;;;;6.97;4.07;;;;;;;2.74;58.38;99736.84;3579235;40;20048;-67
2021/04/16 04:10:33;;;;;;;7.10;4.70;;;;;;;2.75;58.36;99732.47;3579239;40;20060;-68
2021/04/16 04:13:00;;;;;;;5.97;4.43;;;;;;;2.57;58.44;99739.91;3580938;40;20057;-68
2021/04/16 04:15:27;;;;;;;6.45;5.00;;;;;;;2.37;58.53;99731.88;3579618;40;20307;-68
2021/04/16 04:17:55;;;;;;;5.78;4.50;;;;;;;2.23;59.12;99737.28;3579584;40;20052;-68
2021/04/16 04:20:24;;;;;;;7.22;4.22;;;;;;;2.20;59.41;99737.50;3579624;40;20040;-68
2021/04/16 04:22:51;;;;;;;7.85;4.88;;;;;;;2.19;59.94;99734.09;3579548;40;20068;-67
2021/04/16 04:25:19;;;;;;;7.07;4.53;;;;;;;2.28;59.59;99739.53;3578696;40;20060;-68
2021/04/16 04:27:48;;;;;;;6.43;4.85;;;;;;;2.19;59.68;99741.91;3579876;40;20051;-68
2021/04/16 04:30:17;;;;;;;8.30;4.80;;;;;;;2.07;60.15;99747.22;3579686;40;20040;-68
2021/04/16 04:32:43;;;;;;;5.85;4.47;;;;;;;1.99;60.50;99747.78;3580354;40;20112;-69
2021/04/16 04:35:12;;;;;;;9.00;4.65;;;;;;;1.97;60.57;99741.88;3582627;40;20326;-68
2021/04/16 04:37:39;;;;;;;6.80;4.82;;;;;;;1.99;60.69;99747.78;3580775;40;20045;-68
2021/04/16 04:40:07;;;;;;;9.30;5.63;;;;;;;2.11;60.65;99743.44;3581825;40;20036;-68
2021/04/16 04:42:34;;;;;;;7.55;5.28;;;;;;;2.13;60.48;99745.00;3581858;40;20049;-68
2021/04/16 04:45:01;;;;;;;7.50;4.60;;;;;;;2.10;60.54;99739.19;3579789;40;20432;-69
2021/04/16 04:47:27;;;;;;;9.50;5.75;;;;;;;2.17;60.28;99737.78;3579951;40;20056;-69
2021/04/16 04:49:55;;;;;;;5.97;4.90;;;;;;;2.20;60.57;99740.13;3579391;40;20040;-68
2021/04/16 04:52:27;;;;;;;7.32;5.03;;;;;;;2.23;60.66;99738.13;3579427;40;20057;-68
2021/04/16 04:54:56;;;;;;;13.10;6.80;;;;;;;2.37;60.46;99731.88;3579527;40;20444;-69
2021/04/16 04:57:25;;;;;;;13.55;6.15;;;;;;;2.46;60.69;99741.59;3579504;40;20331;-68
2021/04/16 04:59:52;;;;;;;9.77;5.60;;;;;;;2.62;60.47;99733.41;3579305;40;20045;-68
2021/04/16 05:02:22;;;;;;;15.05;6.95;;;;;;;2.78;60.27;99734.84;3579333;40;20049;-68
2021/04/16 05:04:49;;;;;;;11.07;5.60;;;;;;;2.89;59.76;99738.25;3579122;40;20048;-68
2021/04/16 05:07:16;;;;;;;11.57;5.97;;;;;;;2.96;59.42;99739.41;3579835;40;20049;-68
2021/04/16 05:09:44;;;;;;;7.90;5.53;;;;;;;3.01;59.33;99733.00;3578468;40;20076;-68
2021/04/16 05:12:12;;;;;;;6.13;5.45;;;;;;;3.07;59.12;99737.75;3579488;40;20052;-68
2021/04/16 05:14:39;;;;;;;6.70;5.18;;;;;;;3.06;58.99;99734.31;3577989;40;20056;-68
2021/04/16 05:17:06;;;;;;;7.68;6.10;;;;;;;3.04;59.12;99735.38;3579256;40;20311;-67
2021/04/16 05:19:33;;;;;;;11.60;6.22;;;;;;;3.09;58.98;99735.84;3579428;40;20334;-68
2021/04/16 05:22:03;;;;;;;7.30;5.95;;;;;;;3.19;58.83;99731.56;3579591;40;20052;-67
2021/04/16 05:24:31;;;;;;;8.43;5.35;;;;;;;3.20;58.75;99727.97;3579188;40;20344;-68
2021/04/16 05:27:01;;;;;;;10.40;5.47;;;;;;;3.27;58.86;99730.94;3577893;40;20430;-67
2021/04/16 05:29:28;;;;;;;9.07;5.72;;;;;;;3.38;58.75;99728.28;3579263;40;20300;-67
2021/04/16 05:31:55;;;;;;;7.97;5.32;;;;;;;3.47;58.38;99731.00;3578989;40;20049;-67
2021/04/16 05:34:22;;;;;;;5.97;5.35;;;;;;;3.47;58.29;99727.56;3579091;40;20040;-69
2021/04/16 05:36:49;;;;;;;8.65;6.03;;;;;;;3.48;58.23;99732.66;3578719;40;20447;-68
2021/04/16 05:39:16;;;;;;;9.40;6.15;;;;;;;3.54;58.18;99727.88;3579359;40;20064;-68
2021/04/16 05:41:44;;;;;;;8.30;6.03;;;;;;;3.56;58.10;99729.41;3578866;40;20052;-68
2021/04/16 05:44:11;;;;;;;10.10;5.97;;;;;;;3.62;57.89;99731.50;3579034;40;20048;-68
2021/04/16 05:46:38;;;;;;;9.10;5.65;;;;;;;3.58;58.06;99729.28;3579186;40;20049;-68
2021/04/16 05:49:05;;;;;;;8.75;6.45;;;;;;;3.61;57.94;99739.50;3579225;40;20072;-68
2021/04/16 05:51:33;;;;;;;9.98;6.07;;;;;;;3.54;58.00;99736.53;3578983;40;20388;-68
2021/04/16 05:53:59;;;;;;;10.48;6.43;;;;;;;3.56;58.04;99728.59;3579120;40;20049;-68
2021/04/16 05:56:26;;;;;;;16.50;7.15;;;;;;;3.55;57.99;99727.75;3578968;40;20327;-68
2021/04/16 05:58:53;;;;;;;10.85;6.05;;;;;;;3.55;58.01;99729.50;3579375;40;20085;-68
2021/04/16 06:01:21;;;;;;;9.55;6.70;;;;;;;3.55;57.99;99732.13;3578998;40;20059;-68
2021/04/16 06:03:48;;;;;;;11.57;6.90;;;;;;;3.68;58.23;99738.03;3577946;40;20041;-68
2021/04/16 06:06:15;;;;;;;11.05;6.90;;;;;;;3.75;57.78;99739.19;3578003;40;20076;-68
2021/04/16 06:08:43;;;;;;;11.93;6.90;;;;;;;3.74;57.72;99732.28;3578996;40;20044;-68
2021/04/16 06:11:10;;;;;;;10.50;6.18;;;;;;;3.76;57.62;99737.41;3578955;40;20048;-67
2021/04/16 06:13:38;;;;;;;13.73;6.78;;;;;;;3.77;57.75;99736.44;3579351;40;20295;-67
2021/04/16 06:16:09;;;;;;;12.88;7.18;;;;;;;3.85;58.07;99740.09;3577908;40;20052;-68
2021/04/16 06:18:37;;;;;;;11.65;6.82;;;;;;;3.90;57.75;99732.69;3579080;40;20081;-67
2021/04/16 06:21:05;;;;;;;10.75;6.85;;;;;;;3.94;57.76;99736.72;3578999;40;20056;-67
2021/04/16 06:23:32;;;;;;;9.00;6.28;;;;;;;4.00;57.47;99737.16;3578102;40;20404;-67
2021/04/16 06:26:00;;;;;;;10.13;6.45;;;;;;;4.08;57.42;99734.72;3578945;40;20231;-68
2021/04/16 06:28:27;;;;;;;12.85;6.70;;;;;;;4.21;57.25;99738.00;3578096;40;20056;-67
2021/04/16 06:30:54;;;;;;;18.60;9.68;;;;;;;4.15;57.09;99741.94;3578796;40;20405;-67
2021/04/16 06:33:24;;;;;;;9.13;6.40;;;;;;;4.16;56.82;99732.28;3577743;40;20044;-67
2021/04/16 06:35:55;;;;;;;10.13;6.53;;;;;;;4.13;57.06;99736.00;3577860;40;20052;-68
2021/04/16 06:47:26;;;;;;;8.35;6.03;;;;;;;4.23;57.62;99721.19;5630145;22;20432;-69
2021/04/16 06:49:56;;;;;;;7.43;5.88;;;;;;;4.32;58.00;99723.97;3600505;40;20042;-69
2021/04/16 06:54:56;;;;;;;6.50;4.65;;;;;;;4.41;57.33;99724.03;3606934;39;404201;-69
2021/04/16 06:57:34;;;;;;;7.20;5.03;;;;;;;4.39;57.51;99722.50;3608107;39;20295;-74
2021/04/16 07:00:12;;;;;;;6.63;5.45;;;;;;;4.44;57.42;99728.16;3608808;39;20102;-69
2021/04/16 07:02:52;;;;;;;10.15;5.03;;;;;;;4.58;57.40;99724.41;3610176;39;20042;-69
2021/04/16 07:05:41;;;;;;;9.57;5.43;;;;;;;4.64;56.96;99716.81;3628823;39;20323;-69
2021/04/16 07:08:20;;;;;;;7.00;4.72;;;;;;;4.73;56.92;99720.44;3629522;39;20050;-68
2021/04/16 07:10:52;;;;;;;5.82;4.78;;;;;;;4.77;57.05;99721.81;3629490;39;20417;-69
2021/04/16 07:13:30;;;;;;;11.25;4.78;;;;;;;4.88;56.61;99715.66;3629461;39;20024;-68
2021/04/16 07:15:57;;;;;;;8.52;5.53;;;;;;;4.96;56.53;99714.03;3629971;39;20079;-68
2021/04/16 07:18:29;;;;;;;7.35;5.22;;;;;;;5.17;56.09;99718.34;3630435;39;20477;-68
2021/04/16 07:20:57;;;;;;;5.82;4.88;;;;;;;5.19;55.45;99719.06;3634396;39;20051;-68
2021/04/16 07:23:25;;;;;;;6.22;5.05;;;;;;;5.31;55.56;99719.75;3634392;39;20046;-68
2021/04/16 07:26:06;;;;;;;9.30;6.00;;;;;;;5.31;54.92;99719.75;3634620;39;20051;-68
2021/04/16 07:28:44;;;;;;;10.32;5.20;;;;;;;5.38;53.73;99720.84;3634196;39;20054;-68
2021/04/16 07:31:42;;;;;;;8.23;5.28;;;;;;;5.37;53.45;99714.78;3633111;39;20047;-68
2021/04/16 07:34:32;;;;;;;7.53;4.53;;;;;;;5.59;52.84;99716.31;3632377;39;20043;-70
2021/04/16 07:37:15;;;;;;;7.20;4.47;;;;;;;5.66;51.84;99727.06;3634186;39;20051;-68
2021/04/16 07:39:48;;;;;;;7.50;4.43;;;;;;;5.65;51.79;99718.38;3633152;39;20098;-68
2021/04/16 07:42:23;;;;;;;7.13;3.83;;;;;;;5.68;51.54;99717.28;3634903;39;20054;-68
2021/04/16 07:45:05;;;;;;;5.00;4.45;;;;;;;5.77;51.02;99715.63;3634414;39;20046;-68
2021/04/16 07:47:34;;;;;;;10.10;4.43;;;;;;;5.78;50.83;99719.88;3634242;39;20095;-70
2021/04/16 07:50:06;;;;;;;4.63;3.88;;;;;;;5.83;50.57;99720.28;3632312;39;20050;-68
2021/04/16 07:52:36;;;;;;;8.02;4.35;;;;;;;5.89;50.15;99710.06;3633618;39;20050;-68
2021/04/16 07:55:14;;;;;;;4.57;4.10;;;;;;;6.01;50.50;99713.41;3633079;39;20364;-68
2021/04/16 07:57:43;;;;;;;8.25;4.30;;;;;;;6.18;50.05;99707.41;3631708;39;20082;-68
2021/04/16 08:00:24;;;;;;;5.07;4.25;;;;;;;6.34;48.91;99711.25;3628300;39;20058;-68
2021/04/16 08:02:54;;;;;;;5.25;4.53;;;;;;;6.47;48.87;99708.31;3629777;39;20039;-68
2021/04/16 08:05:33;;;;;;;5.88;5.25;;;;;;;6.55;48.42;99714.50;3624419;39;20043;-68
2021/04/16 08:08:14;;;;;;;8.13;5.00;;;;;;;6.45;48.67;99716.34;3621979;39;20045;-68
2021/04/16 08:10:42;;;;;;;6.35;5.13;;;;;;;6.32;49.00;99715.81;3621527;39;20047;-68
2021/04/16 08:13:13;;;;;;;5.93;4.47;;;;;;;6.19;48.82;99724.81;3620479;39;20062;-68
2021/04/16 08:15:41;;;;;;;6.63;5.20;;;;;;;6.08;49.17;99729.41;3621625;39;20042;-69
2021/04/16 08:18:20;;;;;;;5.05;4.55;;;;;;;5.98;49.22;99726.81;3621676;39;20038;-68
2021/04/16 08:20:57;;;;;;;6.25;4.63;;;;;;;5.81;49.78;99730.13;3621379;39;20050;-69
2021/04/16 08:23:27;;;;;;;4.72;4.22;;;;;;;5.68;50.36;99730.41;3621109;39;20405;-68
2021/04/16 08:25:57;;;;;;;5.07;4.57;;;;;;;5.63;50.61;99746.56;3620365;39;20072;-68
2021/04/16 08:28:34;;;;;;;5.70;4.75;;;;;;;5.38;51.51;99734.78;3621731;39;20058;-68
2021/04/16 08:31:06;;;;;;;5.25;4.28;;;;;;;5.47;51.57;99731.38;3621623;39;20094;-69
2021/04/16 08:33:38;;;;;;;4.95;4.55;;;;;;;5.47;51.83;99736.59;3624588;39;20286;-71
2021/04/16 08:36:15;;;;;;;;;;;;;;;5.58;51.40;99737.44;3625885;39;20087;-69
2021/04/16 08:38:51;;;;;;;6.18;4.55;;;;;;;5.72;51.22;99734.41;3625586;39;19942;-69
2021/04/16 08:41:19;;;;;;;4.78;4.28;;;;;;;5.74;50.89;99742.13;3624496;39;20099;-67
2021/04/16 08:43:49;;;;;;;6.57;4.43;;;;;;;5.61;51.11;99731.91;3624737;39;20503;-68
2021/04/16 08:46:23;;;;;;;6.03;4.70;;;;;;;5.61;51.14;99724.88;3625362;39;20077;-69
2021/04/16 08:48:55;;;;;;;5.70;4.55;;;;;;;5.66;51.26;99730.53;3624575;39;20068;-69
2021/04/16 08:51:29;;;;;;;6.65;4.35;;;;;;;5.77;50.74;99734.81;3626081;39;20051;-68
2021/04/16 08:54:00;;;;;;;4.80;3.75;;;;;;;5.80;50.32;99731.91;3633009;39;20042;-69
2021/04/16 08:56:29;;;;;;;5.85;3.85;;;;;;;5.99;50.10;99732.88;3623670;39;20063;-69
2021/04/16 08:58:57;;;;;;;4.68;3.97;;;;;;;6.13;49.87;99728.03;3624833;39;20043;-69
2021/04/16 09:01:36;;;;;;;4.03;3.63;;;;;;;6.27;49.21;99728.53;3625154;39;20080;-69
2021/04/16 09:04:16;;;;;;;8.85;4.15;;;;;;;6.30;48.85;99729.09;3625169;39;20039;-69
2021/04/16 09:06:48;;;;;;;6.85;3.53;;;;;;;6.28;48.78;99740.69;3626408;39;20047;-69
2021/04/16 09:09:39;;;;;;;8.50;4.95;;;;;;;6.23;49.01;99730.63;3625205;39;20031;-69
2021/04/16 09:12:07;;;;;;;4.70;4.22;;;;;;;6.28;49.03;99741.50;3623643;39;20047;-70
2021/04/16 09:14:53;;;;;;;6.20;4.20;;;;;;;6.27;48.59;99736.41;3623724;39;20075;-69
2021/04/16 09:17:55;;;;;;;4.32;3.15;;;;;;;6.18;48.42;99728.44;3623535;39;20039;-69
2021/04/16 09:20:24;;;;;;;5.57;3.55;;;;;;;6.26;49.07;99737.41;3620017;39;20375;-70
2021/04/16 09:22:53;;;;;;;3.80;3.50;;;;;;;6.20;48.99;99733.53;3625496;39;20042;-70
2021/04/16 09:25:46;;;;;;;5.25;3.50;;;;;;;6.36;49.17;99732.94;3626298;39;20051;-70
2021/04/16 09:28:57;;;;;;;4.90;3.42;;;;;;;6.44;49.21;99728.63;3625488;39;20096;-69
2021/04/16 09:31:50;;;;;;;5.40;3.53;;;;;;;6.59;48.29;99739.50;3617581;39;20083;-70
2021/04/16 09:34:20;;;;;;;5.05;3.63;;;;;;;6.49;48.33;99737.88;3624038;39;20469;-68
2021/04/16 09:36:51;;;;;;;6.35;3.53;;;;;;;6.47;49.04;99735.38;3624460;39;20385;-69
2021/04/16 09:39:35;;;;;;;4.38;3.25;;;;;;;6.54;47.83;99738.28;3623878;39;20043;-69
2021/04/16 09:42:31;;;;;;;4.45;3.47;;;;;;;6.48;47.62;99736.22;3626114;39;20039;-69
2021/04/16 09:44:59;;;;;;;3.85;3.33;;;;;;;6.62;47.86;99736.59;3630194;39;20058;-69
2021/04/16 09:47:49;;;;;;;4.47;3.08;;;;;;;6.68;47.36;99733.38;3626235;39;20043;-69
2021/04/16 09:50:23;;;;;;;4.95;3.45;;;;;;;6.78;47.71;99729.91;3622767;39;20046;-69
2021/04/16 09:53:09;;;;;;;4.78;3.53;;;;;;;6.87;47.84;99724.56;3624126;39;20046;-68
2021/04/16 09:56:11;;;;;;;4.28;3.28;;;;;;;7.06;47.18;99730.69;3624660;39;20031;-69
2021/04/16 09:59:09;;;;;;;3.65;3.03;;;;;;;7.06;47.25;99730.69;3625248;39;20047;-69
2021/04/16 10:02:25;;;;;;;3.22;2.90;;;;;;;7.19;46.34;99725.94;3626327;39;20050;-70
2021/04/16 10:05:00;;;;;;;3.08;2.80;;;;;;;7.12;46.16;99727.50;3625669;39;20043;-69
2021/04/16 10:07:34;;;;;;;;;;;;;;;7.20;45.95;99724.94;3625609;39;20046;-69
2021/04/16 10:10:12;;;;;;;3.83;2.45;;;;;;;7.21;46.25;99716.06;3624690;39;20011;-69
2021/04/16 10:12:40;;;;;;;3.55;3.25;;;;;;;7.45;45.70;99718.94;3625663;39;20046;-70
2021/04/16 10:15:23;;;;;;;3.20;2.58;;;;;;;7.48;45.13;99714.38;3625435;39;20043;-70
2021/04/16 10:18:00;;;;;;;5.40;3.58;;;;;;;7.45;45.80;99718.94;3627050;39;20027;-69
2021/04/16 10:20:29;;;;;;;5.88;2.72;;;;;;;7.36;45.65;99725.13;3626945;39;20055;-70
2021/04/16 10:23:06;;;;;;;3.15;2.80;;;;;;;7.48;45.75;99707.31;3626866;39;20318;-70
2021/04/16 12:39:00;;;;;;;1.95;1.83;;;;;;;8.26;42.73;99690.78;3620955;39;20058;-68
2021/04/16 12:41:31;;;;;;;2.97;2.60;;;;;;;8.22;42.97;99684.16;3621159;39;20059;-68
2021/04/16 12:43:59;;;;;;;4.95;2.95;;;;;;;8.19;42.99;99690.56;3619992;39;20051;-68
2021/04/16 12:46:31;;;;;;;3.10;2.20;;;;;;;8.14;43.35;99685.75;3620866;39;20055;-68
2021/04/16 12:48:58;;;;;;;4.47;2.40;;;;;;;8.15;43.47;99682.13;3621049;39;20123;-68
2021/04/16 12:51:25;;;;;;;7.25;2.92;;;;;;;8.18;43.22;99686.28;3619720;39;20047;-69
2021/04/16 12:53:51;;;;;;;2.40;2.00;;;;;;;8.16;42.69;99683.81;3620574;39;20047;-68
2021/04/16 12:56:21;;;;;;;3.45;2.38;;;;;;;8.22;42.75;99678.91;3621109;39;20103;-68
2021/04/16 12:58:49;;;;;;;3.22;2.40;;;;;;;8.23;42.99;99681.34;3621049;39;20094;-68
2021/04/16 13:01:22;;;;;;;4.18;2.47;;;;;;;8.35;42.87;99679.28;3620864;39;20429;-69
2021/04/16 13:03:50;;;;;;;4.47;3.47;;;;;;;8.47;42.17;99677.25;3620886;39;20059;-70
2021/04/16 13:06:24;;;;;;;2.83;2.20;;;;;;;8.26;42.57;99680.25;3620551;39;20055;-69
2021/04/16 13:08:51;;;;;;;4.30;3.00;;;;;;;8.38;42.61;99684.28;3632877;22;20037;-65
2021/04/16 13:11:18;;;;;;;3.08;2.78;;;;;;;8.46;42.63;99671.16;3590257;40;20092;-65
2021/04/16 13:13:45;;;;;;;5.30;3.00;;;;;;;8.67;42.14;99673.38;3589905;40;20056;-64
2021/04/16 13:16:13;;;;;;;4.07;2.10;;;;;;;8.61;42.16;99669.56;3590081;40;20063;-65
2021/04/16 13:18:42;;;;;;;5.03;2.25;;;;;;;8.72;42.13;99675.53;3589777;40;20299;-64
2021/04/16 13:21:15;;;;;;;4.03;1.90;;;;;;;8.84;41.29;99671.63;3589989;40;20048;-64
2021/04/16 13:23:42;;;;;;;3.00;2.30;;;;;;;8.72;41.51;99681.63;3589817;40;20387;-65
2021/04/16 13:26:10;;;;;;;3.78;2.63;;;;;;;8.68;41.95;99670.56;3589829;40;20376;-65
2021/04/16 13:28:36;;;;;;;4.57;2.17;;;;;;;8.81;41.80;99664.84;3589603;40;20080;-65
2021/04/16 13:31:05;;;;;;;6.00;2.60;;;;;;;8.95;41.48;99667.88;3590133;40;20076;-66
2021/04/16 13:33:38;;;;;;;3.08;2.20;;;;;;;8.89;40.85;99672.78;3590149;40;20128;-66
2021/04/16 13:36:12;;;;;;;3.65;2.45;;;;;;;8.87;41.60;99669.50;3589188;40;20047;-65
2021/04/16 13:38:39;;;;;;;3.50;2.15;;;;;;;8.87;41.36;99666.03;3588703;40;20056;-65
2021/04/16 13:41:06;;;;;;;2.97;1.83;;;;;;;8.78;41.19;99665.19;3589706;40;20080;-65
2021/04/16 13:43:34;;;;;;;3.20;1.98;;;;;;;8.77;41.01;99655.59;3589665;40;20059;-65
2021/04/16 13:46:05;;;;;;;2.30;2.03;;;;;;;8.84;41.04;99653.16;3589640;40;20102;-65
2021/04/16 13:48:33;;;;;;;3.85;2.60;;;;;;;8.84;40.89;99653.16;3589483;40;20052;-65
2021/04/16 13:51:00;;;;;;;3.95;2.28;;;;;;;8.77;41.24;99644.22;3589480;40;20055;-66
2021/04/16 13:53:27;;;;;;;4.28;2.20;;;;;;;8.70;41.21;99646.72;3590237;40;20048;-66
2021/04/16 13:55:54;;;;;;;2.72;2.25;;;;;;;8.47;41.58;99646.44;3589436;40;20052;-65
2021/04/16 13:58:21;;;;;;;4.97;2.40;;;;;;;8.41;41.75;99641.81;3589433;40;20352;-65
2021/04/16 14:00:48;;;;;;;3.58;2.00;;;;;;;8.42;41.89;99639.03;3589561;40;20056;-64
2021/04/16 14:03:23;;;;;;;5.70;3.17;;;;;;;8.37;42.01;99637.84;3588906;40;20048;-66
2021/04/16 14:05:53;;;;;;;3.45;1.73;;;;;;;8.45;41.62;99632.63;3589676;40;20080;-65
2021/04/16 14:08:26;;;;;;;2.97;2.20;;;;;;;8.40;41.67;99640.97;3589032;40;20041;-65
2021/04/16 14:10:53;;;;;;;5.05;2.50;;;;;;;8.31;41.90;99633.16;3590135;40;20024;-66
2021/04/16 14:13:20;;;;;;;2.90;2.22;;;;;;;8.40;41.81;99634.88;3589671;40;20040;-67
2021/04/16 14:15:46;;;;;;;2.55;2.00;;;;;;;8.46;41.88;99644.81;3589314;40;20468;-65
2021/04/16 14:18:28;;;;;;;3.53;2.17;;;;;;;8.48;42.13;99634.09;3590841;40;20041;-66
2021/04/16 14:20:56;;;;;;;3.60;2.63;;;;;;;8.60;42.23;99633.63;3590046;40;20125;-66
2021/04/16 14:23:24;;;;;;;2.42;2.22;;;;;;;8.64;41.88;99634.97;3591837;40;20052;-65